sensor_id;sensor_type;location;lat;lon;timestamp;temperature;humidity
29939;DHT22;16799;50.844;5.304;2023-04-06T00:00:52;4.70;99.90
29939;DHT22;16799;50.844;5.304;2023-04-06T00:03:18;4.70;99.90
29939;DHT22;16799;50.844;5.304;2023-04-06T00:05:44;4.70;99.90
29939;DHT22;16799;50.844;5.304;2023-04-06T00:08:10;4.60;99.90
29939;DHT22;16799;50.844;5.304;2023-04-06T00:10:36;4.70;99.90
29939;DHT22;16799;50.844;5.304;2023-04-06T00:13:02;4.70;99.90
29939;DHT22;16799;50.844;5.304;2023-04-06T00:15:27;4.60;99.90
29939;DHT22;16799;50.844;5.304;2023-04-06T00:17:53;4.60;99.90
29939;DHT22;16799;50.844;5.304;2023-04-06T00:20:19;4.50;99.90
29939;DHT22;16799;50.844;5.304;2023-04-06T00:22:45;4.50;99.90
29939;DHT22;16799;50.844;5.304;2023-04-06T00:25:11;4.50;99.90
29939;DHT22;16799;50.844;5.304;2023-04-06T00:27:37;4.40;99.90
29939;DHT22;16799;50.844;5.304;2023-04-06T00:30:04;4.50;99.90
29939;DHT22;16799;50.844;5.304;2023-04-06T00:32:30;4.50;99.90
29939;DHT22;16799;50.844;5.304;2023-04-06T00:34:58;4.30;99.90
29939;DHT22;16799;50.844;5.304;2023-04-06T00:37:24;4.30;99.90
29939;DHT22;16799;50.844;5.304;2023-04-06T00:39:49;4.40;99.90
29939;DHT22;16799;50.844;5.304;2023-04-06T00:42:17;4.40;99.90
29939;DHT22;16799;50.844;5.304;2023-04-06T00:44:51;4.40;99.90
29939;DHT22;16799;50.844;5.304;2023-04-06T00:47:17;4.40;99.90
29939;DHT22;16799;50.844;5.304;2023-04-06T00:49:43;4.30;99.90
29939;DHT22;16799;50.844;5.304;2023-04-06T00:52:09;4.30;99.90
29939;DHT22;16799;50.844;5.304;2023-04-06T00:54:34;4.30;99.90
29939;DHT22;16799;50.844;5.304;2023-04-06T00:57:00;4.20;99.90
29939;DHT22;16799;50.844;5.304;2023-04-06T00:59:27;4.10;99.90
29939;DHT22;16799;50.844;5.304;2023-04-06T01:01:53;4.10;99.90
29939;DHT22;16799;50.844;5.304;2023-04-06T01:04:19;4.00;99.90
29939;DHT22;16799;50.844;5.304;2023-04-06T01:06:44;4.00;99.90
29939;DHT22;16799;50.844;5.304;2023-04-06T01:09:11;3.90;99.90
29939;DHT22;16799;50.844;5.304;2023-04-06T01:11:36;4.00;99.90
29939;DHT22;16799;50.844;5.304;2023-04-06T01:14:03;4.00;99.90
29939;DHT22;16799;50.844;5.304;2023-04-06T01:16:29;4.00;99.90
29939;DHT22;16799;50.844;5.304;2023-04-06T01:18:54;4.20;99.90
29939;DHT22;16799;50.844;5.304;2023-04-06T01:21:20;4.20;99.90
29939;DHT22;16799;50.844;5.304;2023-04-06T01:23:46;4.20;99.90
29939;DHT22;16799;50.844;5.304;2023-04-06T01:26:12;4.10;99.90
29939;DHT22;16799;50.844;5.304;2023-04-06T01:28:38;4.10;99.90
29939;DHT22;16799;50.844;5.304;2023-04-06T01:31:08;4.10;99.90
29939;DHT22;16799;50.844;5.304;2023-04-06T01:33:33;4.10;99.90
29939;DHT22;16799;50.844;5.304;2023-04-06T01:36:00;4.10;99.90
29939;DHT22;16799;50.844;5.304;2023-04-06T01:38:25;4.10;99.90
29939;DHT22;16799;50.844;5.304;2023-04-06T01:40:52;4.00;99.90
29939;DHT22;16799;50.844;5.304;2023-04-06T01:43:18;3.90;99.90
29939;DHT22;16799;50.844;5.304;2023-04-06T01:45:43;4.00;99.90
29939;DHT22;16799;50.844;5.304;2023-04-06T01:48:09;4.00;99.90
29939;DHT22;16799;50.844;5.304;2023-04-06T01:50:35;4.00;99.90
29939;DHT22;16799;50.844;5.304;2023-04-06T01:53:01;4.00;99.90
29939;DHT22;16799;50.844;5.304;2023-04-06T01:55:27;4.10;99.90
29939;DHT22;16799;50.844;5.304;2023-04-06T01:57:52;4.20;99.90
29939;DHT22;16799;50.844;5.304;2023-04-06T02:00:18;4.10;99.90
29939;DHT22;16799;50.844;5.304;2023-04-06T02:02:44;4.00;99.90
29939;DHT22;16799;50.844;5.304;2023-04-06T02:05:10;4.00;99.90
29939;DHT22;16799;50.844;5.304;2023-04-06T02:07:36;4.20;99.90
29939;DHT22;16799;50.844;5.304;2023-04-06T02:10:03;4.20;99.90
29939;DHT22;16799;50.844;5.304;2023-04-06T02:12:28;4.30;99.90
29939;DHT22;16799;50.844;5.304;2023-04-06T02:14:54;4.30;99.90
29939;DHT22;16799;50.844;5.304;2023-04-06T02:17:20;4.30;99.90
29939;DHT22;16799;50.844;5.304;2023-04-06T02:19:45;4.40;99.90
29939;DHT22;16799;50.844;5.304;2023-04-06T02:22:11;4.40;99.90
29939;DHT22;16799;50.844;5.304;2023-04-06T02:24:37;4.40;99.90
29939;DHT22;16799;50.844;5.304;2023-04-06T02:27:03;4.50;99.90
29939;DHT22;16799;50.844;5.304;2023-04-06T02:29:28;4.60;99.90
29939;DHT22;16799;50.844;5.304;2023-04-06T02:31:54;4.60;99.90
29939;DHT22;16799;50.844;5.304;2023-04-06T02:34:20;4.70;99.90
29939;DHT22;16799;50.844;5.304;2023-04-06T02:36:46;4.60;99.90
29939;DHT22;16799;50.844;5.304;2023-04-06T02:39:12;4.70;99.90
29939;DHT22;16799;50.844;5.304;2023-04-06T02:41:38;5.00;99.90
29939;DHT22;16799;50.844;5.304;2023-04-06T02:44:07;4.90;99.90
29939;DHT22;16799;50.844;5.304;2023-04-06T02:46:34;5.00;99.90
29939;DHT22;16799;50.844;5.304;2023-04-06T02:49:00;5.00;99.90
29939;DHT22;16799;50.844;5.304;2023-04-06T02:51:26;5.00;99.90
29939;DHT22;16799;50.844;5.304;2023-04-06T02:53:52;4.90;99.90
29939;DHT22;16799;50.844;5.304;2023-04-06T02:56:18;5.00;99.90
29939;DHT22;16799;50.844;5.304;2023-04-06T02:58:46;4.90;99.90
29939;DHT22;16799;50.844;5.304;2023-04-06T03:01:12;5.00;99.90
29939;DHT22;16799;50.844;5.304;2023-04-06T03:03:37;5.00;99.90
29939;DHT22;16799;50.844;5.304;2023-04-06T03:06:03;5.00;99.90
29939;DHT22;16799;50.844;5.304;2023-04-06T03:08:29;5.00;99.90
29939;DHT22;16799;50.844;5.304;2023-04-06T03:10:55;5.00;99.90
29939;DHT22;16799;50.844;5.304;2023-04-06T03:13:21;4.90;99.90
29939;DHT22;16799;50.844;5.304;2023-04-06T03:15:46;4.90;99.90
29939;DHT22;16799;50.844;5.304;2023-04-06T03:18:12;4.90;99.90
29939;DHT22;16799;50.844;5.304;2023-04-06T03:20:38;4.90;99.90
29939;DHT22;16799;50.844;5.304;2023-04-06T03:23:03;4.80;99.90
29939;DHT22;16799;50.844;5.304;2023-04-06T03:25:29;4.90;99.90
29939;DHT22;16799;50.844;5.304;2023-04-06T03:27:55;4.90;99.90
29939;DHT22;16799;50.844;5.304;2023-04-06T03:30:21;4.90;99.90
29939;DHT22;16799;50.844;5.304;2023-04-06T03:32:48;4.90;99.90
29939;DHT22;16799;50.844;5.304;2023-04-06T03:35:14;4.90;99.90
29939;DHT22;16799;50.844;5.304;2023-04-06T03:37:39;4.80;99.90
29939;DHT22;16799;50.844;5.304;2023-04-06T03:40:05;4.70;99.90
29939;DHT22;16799;50.844;5.304;2023-04-06T03:42:31;4.80;99.90
29939;DHT22;16799;50.844;5.304;2023-04-06T03:44:58;4.90;99.90
29939;DHT22;16799;50.844;5.304;2023-04-06T03:47:24;4.70;99.90
29939;DHT22;16799;50.844;5.304;2023-04-06T03:49:50;4.80;99.90
29939;DHT22;16799;50.844;5.304;2023-04-06T03:52:16;4.80;99.90
29939;DHT22;16799;50.844;5.304;2023-04-06T03:54:41;4.80;99.90
29939;DHT22;16799;50.844;5.304;2023-04-06T03:57:07;4.80;99.90
29939;DHT22;16799;50.844;5.304;2023-04-06T03:59:33;4.80;99.90
29939;DHT22;16799;50.844;5.304;2023-04-06T04:01:58;4.80;99.90
29939;DHT22;16799;50.844;5.304;2023-04-06T04:04:24;4.70;99.90
29939;DHT22;16799;50.844;5.304;2023-04-06T04:06:50;4.70;99.90
29939;DHT22;16799;50.844;5.304;2023-04-06T04:09:15;4.80;99.90
29939;DHT22;16799;50.844;5.304;2023-04-06T04:11:41;4.80;99.90
29939;DHT22;16799;50.844;5.304;2023-04-06T04:14:07;4.80;99.90
29939;DHT22;16799;50.844;5.304;2023-04-06T04:16:32;4.90;99.90
29939;DHT22;16799;50.844;5.304;2023-04-06T04:18:58;4.90;99.90
29939;DHT22;16799;50.844;5.304;2023-04-06T04:21:24;4.90;99.90
29939;DHT22;16799;50.844;5.304;2023-04-06T04:23:51;4.90;99.90
29939;DHT22;16799;50.844;5.304;2023-04-06T04:26:18;4.80;99.90
29939;DHT22;16799;50.844;5.304;2023-04-06T04:28:43;4.80;99.90
29939;DHT22;16799;50.844;5.304;2023-04-06T04:31:09;4.80;99.90
29939;DHT22;16799;50.844;5.304;2023-04-06T04:33:35;4.80;99.90
29939;DHT22;16799;50.844;5.304;2023-04-06T04:36:01;4.90;99.90
29939;DHT22;16799;50.844;5.304;2023-04-06T04:38:26;4.90;99.90
29939;DHT22;16799;50.844;5.304;2023-04-06T04:40:52;4.90;99.90
29939;DHT22;16799;50.844;5.304;2023-04-06T04:43:18;4.90;99.90
29939;DHT22;16799;50.844;5.304;2023-04-06T04:45:43;5.00;99.90
29939;DHT22;16799;50.844;5.304;2023-04-06T04:48:09;5.00;99.90
29939;DHT22;16799;50.844;5.304;2023-04-06T04:50:35;5.10;99.90
29939;DHT22;16799;50.844;5.304;2023-04-06T04:53:01;5.20;99.90
29939;DHT22;16799;50.844;5.304;2023-04-06T04:55:27;5.10;99.90
29939;DHT22;16799;50.844;5.304;2023-04-06T04:57:54;5.10;99.90
29939;DHT22;16799;50.844;5.304;2023-04-06T05:00:20;5.10;99.90
29939;DHT22;16799;50.844;5.304;2023-04-06T05:02:46;5.10;99.90
29939;DHT22;16799;50.844;5.304;2023-04-06T05:05:11;5.10;99.90
29939;DHT22;16799;50.844;5.304;2023-04-06T05:07:37;5.10;99.90
29939;DHT22;16799;50.844;5.304;2023-04-06T05:10:03;5.20;99.90
29939;DHT22;16799;50.844;5.304;2023-04-06T05:12:29;5.20;99.90
29939;DHT22;16799;50.844;5.304;2023-04-06T05:14:54;5.40;99.90
29939;DHT22;16799;50.844;5.304;2023-04-06T05:17:20;5.40;99.90
29939;DHT22;16799;50.844;5.304;2023-04-06T05:19:46;5.50;99.90
29939;DHT22;16799;50.844;5.304;2023-04-06T05:22:11;5.50;99.90
29939;DHT22;16799;50.844;5.304;2023-04-06T05:24:39;5.40;99.90
29939;DHT22;16799;50.844;5.304;2023-04-06T05:27:05;5.40;99.90
29939;DHT22;16799;50.844;5.304;2023-04-06T05:29:31;5.40;99.90
29939;DHT22;16799;50.844;5.304;2023-04-06T05:31:57;5.40;99.90
29939;DHT22;16799;50.844;5.304;2023-04-06T05:34:23;5.50;99.90
29939;DHT22;16799;50.844;5.304;2023-04-06T05:36:48;5.50;99.90
29939;DHT22;16799;50.844;5.304;2023-04-06T05:39:14;5.60;99.90
29939;DHT22;16799;50.844;5.304;2023-04-06T05:41:40;5.60;99.90
29939;DHT22;16799;50.844;5.304;2023-04-06T05:44:06;5.70;99.90
29939;DHT22;16799;50.844;5.304;2023-04-06T05:46:32;5.70;99.90
29939;DHT22;16799;50.844;5.304;2023-04-06T05:48:57;5.80;99.90
29939;DHT22;16799;50.844;5.304;2023-04-06T05:51:23;5.80;99.90
29939;DHT22;16799;50.844;5.304;2023-04-06T05:53:49;5.80;99.90
29939;DHT22;16799;50.844;5.304;2023-04-06T05:56:14;5.80;99.90
29939;DHT22;16799;50.844;5.304;2023-04-06T05:58:41;5.80;99.90
29939;DHT22;16799;50.844;5.304;2023-04-06T06:01:06;5.70;99.90
29939;DHT22;16799;50.844;5.304;2023-04-06T06:03:32;5.70;99.90
29939;DHT22;16799;50.844;5.304;2023-04-06T06:06:01;5.80;99.90
29939;DHT22;16799;50.844;5.304;2023-04-06T06:08:28;6.00;99.90
29939;DHT22;16799;50.844;5.304;2023-04-06T06:10:54;5.90;99.90
29939;DHT22;16799;50.844;5.304;2023-04-06T06:13:20;5.80;99.90
29939;DHT22;16799;50.844;5.304;2023-04-06T06:15:46;5.80;99.90
29939;DHT22;16799;50.844;5.304;2023-04-06T06:18:12;6.20;99.90
29939;DHT22;16799;50.844;5.304;2023-04-06T06:20:37;6.40;99.90
29939;DHT22;16799;50.844;5.304;2023-04-06T06:23:03;6.50;99.90
29939;DHT22;16799;50.844;5.304;2023-04-06T06:25:29;6.50;99.90
29939;DHT22;16799;50.844;5.304;2023-04-06T06:27:56;6.60;99.90
29939;DHT22;16799;50.844;5.304;2023-04-06T06:30:22;6.70;99.90
29939;DHT22;16799;50.844;5.304;2023-04-06T06:32:48;6.60;99.90
29939;DHT22;16799;50.844;5.304;2023-04-06T06:35:13;6.70;99.80
29939;DHT22;16799;50.844;5.304;2023-04-06T06:37:39;6.70;99.70
29939;DHT22;16799;50.844;5.304;2023-04-06T06:40:05;6.80;99.90
29939;DHT22;16799;50.844;5.304;2023-04-06T06:42:31;6.90;99.60
29939;DHT22;16799;50.844;5.304;2023-04-06T06:44:57;7.00;99.10
29939;DHT22;16799;50.844;5.304;2023-04-06T06:47:22;7.10;98.50
29939;DHT22;16799;50.844;5.304;2023-04-06T06:49:48;7.20;98.90
29939;DHT22;16799;50.844;5.304;2023-04-06T06:52:14;7.20;98.80
29939;DHT22;16799;50.844;5.304;2023-04-06T06:54:40;7.20;98.70
29939;DHT22;16799;50.844;5.304;2023-04-06T06:57:05;7.20;99.20
29939;DHT22;16799;50.844;5.304;2023-04-06T06:59:31;7.20;99.60
29939;DHT22;16799;50.844;5.304;2023-04-06T07:01:56;7.30;99.90
29939;DHT22;16799;50.844;5.304;2023-04-06T07:04:22;7.40;99.80
29939;DHT22;16799;50.844;5.304;2023-04-06T07:06:48;7.40;99.90
29939;DHT22;16799;50.844;5.304;2023-04-06T07:09:13;7.50;99.50
29939;DHT22;16799;50.844;5.304;2023-04-06T07:11:39;7.60;98.90
29939;DHT22;16799;50.844;5.304;2023-04-06T07:14:05;7.60;99.10
29939;DHT22;16799;50.844;5.304;2023-04-06T07:16:30;7.70;98.50
29939;DHT22;16799;50.844;5.304;2023-04-06T07:18:56;7.70;98.20
29939;DHT22;16799;50.844;5.304;2023-04-06T07:21:22;7.90;98.20
29939;DHT22;16799;50.844;5.304;2023-04-06T07:23:47;8.00;98.60
29939;DHT22;16799;50.844;5.304;2023-04-06T07:26:14;8.00;99.20
29939;DHT22;16799;50.844;5.304;2023-04-06T07:28:39;8.10;99.50
29939;DHT22;16799;50.844;5.304;2023-04-06T07:31:05;8.30;99.80
29939;DHT22;16799;50.844;5.304;2023-04-06T07:33:31;8.40;99.80
29939;DHT22;16799;50.844;5.304;2023-04-06T07:35:57;8.60;99.90
29939;DHT22;16799;50.844;5.304;2023-04-06T07:38:24;8.90;99.10
29939;DHT22;16799;50.844;5.304;2023-04-06T07:40:49;9.00;97.80
29939;DHT22;16799;50.844;5.304;2023-04-06T07:43:16;9.00;97.20
29939;DHT22;16799;50.844;5.304;2023-04-06T07:45:42;9.00;96.90
29939;DHT22;16799;50.844;5.304;2023-04-06T07:48:07;9.10;97.30
29939;DHT22;16799;50.844;5.304;2023-04-06T07:50:33;9.10;97.10
29939;DHT22;16799;50.844;5.304;2023-04-06T07:52:59;9.00;97.60
29939;DHT22;16799;50.844;5.304;2023-04-06T07:55:26;9.10;97.70
29939;DHT22;16799;50.844;5.304;2023-04-06T07:57:51;9.30;96.30
29939;DHT22;16799;50.844;5.304;2023-04-06T08:00:17;9.30;96.40
29939;DHT22;16799;50.844;5.304;2023-04-06T08:02:43;9.30;94.90
29939;DHT22;16799;50.844;5.304;2023-04-06T08:05:09;9.40;95.30
29939;DHT22;16799;50.844;5.304;2023-04-06T08:07:35;9.60;95.50
29939;DHT22;16799;50.844;5.304;2023-04-06T08:10:01;9.80;94.50
29939;DHT22;16799;50.844;5.304;2023-04-06T08:12:27;9.70;93.90
29939;DHT22;16799;50.844;5.304;2023-04-06T08:14:53;9.70;94.20
29939;DHT22;16799;50.844;5.304;2023-04-06T08:17:18;9.70;93.40
29939;DHT22;16799;50.844;5.304;2023-04-06T08:19:44;9.60;93.80
29939;DHT22;16799;50.844;5.304;2023-04-06T08:22:11;9.50;94.40
29939;DHT22;16799;50.844;5.304;2023-04-06T08:24:36;9.60;94.20
29939;DHT22;16799;50.844;5.304;2023-04-06T08:27:02;9.60;94.50
29939;DHT22;16799;50.844;5.304;2023-04-06T08:29:28;9.70;94.40
29939;DHT22;16799;50.844;5.304;2023-04-06T08:31:54;10.00;93.00
29939;DHT22;16799;50.844;5.304;2023-04-06T08:34:20;10.10;93.10
29939;DHT22;16799;50.844;5.304;2023-04-06T08:36:46;10.30;93.10
29939;DHT22;16799;50.844;5.304;2023-04-06T08:39:12;10.40;91.90
29939;DHT22;16799;50.844;5.304;2023-04-06T08:41:38;10.10;92.40
29939;DHT22;16799;50.844;5.304;2023-04-06T08:44:06;9.70;94.00
29939;DHT22;16799;50.844;5.304;2023-04-06T08:46:32;9.90;94.20
29939;DHT22;16799;50.844;5.304;2023-04-06T08:48:59;9.90;94.30
29939;DHT22;16799;50.844;5.304;2023-04-06T08:51:27;9.70;94.60
29939;DHT22;16799;50.844;5.304;2023-04-06T08:53:53;9.80;95.30
29939;DHT22;16799;50.844;5.304;2023-04-06T08:56:27;9.70;96.30
29939;DHT22;16799;50.844;5.304;2023-04-06T08:58:54;9.70;96.10
29939;DHT22;16799;50.844;5.304;2023-04-06T09:01:22;9.90;96.30
29939;DHT22;16799;50.844;5.304;2023-04-06T09:03:51;10.20;95.20
29939;DHT22;16799;50.844;5.304;2023-04-06T09:06:20;10.10;94.20
29939;DHT22;16799;50.844;5.304;2023-04-06T09:08:46;10.00;94.90
29939;DHT22;16799;50.844;5.304;2023-04-06T09:11:12;9.80;95.90
29939;DHT22;16799;50.844;5.304;2023-04-06T09:14:04;9.70;96.60
29939;DHT22;16799;50.844;5.304;2023-04-06T09:16:39;9.70;97.20
29939;DHT22;16799;50.844;5.304;2023-04-06T09:19:06;9.70;98.10
29939;DHT22;16799;50.844;5.304;2023-04-06T09:21:32;9.80;98.80
29939;DHT22;16799;50.844;5.304;2023-04-06T09:24:01;9.80;98.00
29939;DHT22;16799;50.844;5.304;2023-04-06T09:26:27;9.80;99.90
29939;DHT22;16799;50.844;5.304;2023-04-06T09:28:55;9.70;99.90
29939;DHT22;16799;50.844;5.304;2023-04-06T09:31:24;9.50;99.90
29939;DHT22;16799;50.844;5.304;2023-04-06T09:33:51;9.30;99.90
29939;DHT22;16799;50.844;5.304;2023-04-06T09:36:28;9.10;99.90
29939;DHT22;16799;50.844;5.304;2023-04-06T09:38:56;9.20;99.90
29939;DHT22;16799;50.844;5.304;2023-04-06T09:41:23;9.30;99.90
29939;DHT22;16799;50.844;5.304;2023-04-06T09:44:11;9.20;99.90
29939;DHT22;16799;50.844;5.304;2023-04-06T09:46:39;8.90;99.90
29939;DHT22;16799;50.844;5.304;2023-04-06T09:49:05;8.80;99.90
29939;DHT22;16799;50.844;5.304;2023-04-06T09:54:04;8.90;99.90
29939;DHT22;16799;50.844;5.304;2023-04-06T09:56:37;9.10;99.90
29939;DHT22;16799;50.844;5.304;2023-04-06T09:59:13;9.30;99.90
29939;DHT22;16799;50.844;5.304;2023-04-06T10:01:39;9.40;99.90
29939;DHT22;16799;50.844;5.304;2023-04-06T10:06:37;9.20;99.90
29939;DHT22;16799;50.844;5.304;2023-04-06T10:09:06;9.10;99.90
29939;DHT22;16799;50.844;5.304;2023-04-06T10:11:34;9.20;99.90
29939;DHT22;16799;50.844;5.304;2023-04-06T10:14:00;9.20;99.90
29939;DHT22;16799;50.844;5.304;2023-04-06T10:16:26;9.10;99.90
29939;DHT22;16799;50.844;5.304;2023-04-06T10:18:58;9.20;99.90
29939;DHT22;16799;50.844;5.304;2023-04-06T10:21:27;9.20;99.90
29939;DHT22;16799;50.844;5.304;2023-04-06T10:23:59;9.10;99.90
29939;DHT22;16799;50.844;5.304;2023-04-06T10:26:25;9.10;99.90
29939;DHT22;16799;50.844;5.304;2023-04-06T10:28:51;9.10;99.90
29939;DHT22;16799;50.844;5.304;2023-04-06T10:31:25;9.10;99.90
29939;DHT22;16799;50.844;5.304;2023-04-06T10:36:31;9.10;99.90
29939;DHT22;16799;50.844;5.304;2023-04-06T10:39:02;9.00;99.90
29939;DHT22;16799;50.844;5.304;2023-04-06T10:41:44;9.10;99.90
29939;DHT22;16799;50.844;5.304;2023-04-06T10:44:22;9.00;99.90
29939;DHT22;16799;50.844;5.304;2023-04-06T10:46:59;8.80;99.90
29939;DHT22;16799;50.844;5.304;2023-04-06T10:49:28;8.60;99.90
29939;DHT22;16799;50.844;5.304;2023-04-06T10:51:55;8.60;99.90
29939;DHT22;16799;50.844;5.304;2023-04-06T10:54:22;8.80;99.90
29939;DHT22;16799;50.844;5.304;2023-04-06T10:56:49;8.90;99.90
29939;DHT22;16799;50.844;5.304;2023-04-06T10:59:21;9.10;99.90
29939;DHT22;16799;50.844;5.304;2023-04-06T11:01:48;9.10;99.90
29939;DHT22;16799;50.844;5.304;2023-04-06T11:04:18;9.10;99.90
29939;DHT22;16799;50.844;5.304;2023-04-06T11:06:47;9.10;99.90
29939;DHT22;16799;50.844;5.304;2023-04-06T11:09:23;9.10;99.90
29939;DHT22;16799;50.844;5.304;2023-04-06T11:11:49;9.10;99.90
29939;DHT22;16799;50.844;5.304;2023-04-06T11:14:14;9.10;99.90
29939;DHT22;16799;50.844;5.304;2023-04-06T11:16:40;8.90;99.90
29939;DHT22;16799;50.844;5.304;2023-04-06T11:19:06;8.90;99.90
29939;DHT22;16799;50.844;5.304;2023-04-06T11:21:38;8.80;99.90
29939;DHT22;16799;50.844;5.304;2023-04-06T11:26:53;8.90;99.90
29939;DHT22;16799;50.844;5.304;2023-04-06T11:29:20;9.00;99.90
29939;DHT22;16799;50.844;5.304;2023-04-06T11:31:51;8.90;99.90
29939;DHT22;16799;50.844;5.304;2023-04-06T11:34:19;8.90;99.90
29939;DHT22;16799;50.844;5.304;2023-04-06T11:36:47;8.90;99.90
29939;DHT22;16799;50.844;5.304;2023-04-06T11:39:23;9.00;99.90
29939;DHT22;16799;50.844;5.304;2023-04-06T11:41:53;8.90;99.90
29939;DHT22;16799;50.844;5.304;2023-04-06T11:44:36;8.80;99.90
29939;DHT22;16799;50.844;5.304;2023-04-06T11:47:03;8.70;99.90
29939;DHT22;16799;50.844;5.304;2023-04-06T11:49:30;8.70;99.90
29939;DHT22;16799;50.844;5.304;2023-04-06T11:51:57;8.70;99.90
29939;DHT22;16799;50.844;5.304;2023-04-06T11:54:37;8.60;99.90
29939;DHT22;16799;50.844;5.304;2023-04-06T11:57:07;8.60;99.90
29939;DHT22;16799;50.844;5.304;2023-04-06T11:59:33;8.80;99.90
29939;DHT22;16799;50.844;5.304;2023-04-06T12:02:00;8.90;99.90
29939;DHT22;16799;50.844;5.304;2023-04-06T12:04:26;9.00;99.90
29939;DHT22;16799;50.844;5.304;2023-04-06T12:06:52;9.00;99.90
29939;DHT22;16799;50.844;5.304;2023-04-06T12:09:18;8.90;99.90
29939;DHT22;16799;50.844;5.304;2023-04-06T12:11:44;8.80;99.90
29939;DHT22;16799;50.844;5.304;2023-04-06T12:14:11;8.90;99.90
29939;DHT22;16799;50.844;5.304;2023-04-06T12:16:37;8.90;99.90
29939;DHT22;16799;50.844;5.304;2023-04-06T12:19:03;8.90;99.90
29939;DHT22;16799;50.844;5.304;2023-04-06T12:21:29;9.00;99.90
29939;DHT22;16799;50.844;5.304;2023-04-06T12:23:57;8.90;99.90
29939;DHT22;16799;50.844;5.304;2023-04-06T12:26:23;9.00;99.90
29939;DHT22;16799;50.844;5.304;2023-04-06T12:28:48;9.00;99.90
29939;DHT22;16799;50.844;5.304;2023-04-06T12:31:15;9.00;99.90
29939;DHT22;16799;50.844;5.304;2023-04-06T12:33:41;9.00;99.90
29939;DHT22;16799;50.844;5.304;2023-04-06T12:36:18;9.00;99.90
29939;DHT22;16799;50.844;5.304;2023-04-06T12:38:45;8.90;99.90
29939;DHT22;16799;50.844;5.304;2023-04-06T12:41:12;8.70;99.90
29939;DHT22;16799;50.844;5.304;2023-04-06T12:43:39;8.60;99.90
29939;DHT22;16799;50.844;5.304;2023-04-06T12:46:05;8.70;99.90
29939;DHT22;16799;50.844;5.304;2023-04-06T12:48:31;8.80;99.90
29939;DHT22;16799;50.844;5.304;2023-04-06T12:50:58;8.90;99.90
29939;DHT22;16799;50.844;5.304;2023-04-06T12:53:25;8.80;99.90
29939;DHT22;16799;50.844;5.304;2023-04-06T12:55:51;8.80;99.90
29939;DHT22;16799;50.844;5.304;2023-04-06T12:58:17;8.80;99.90
29939;DHT22;16799;50.844;5.304;2023-04-06T13:00:43;8.80;99.90
29939;DHT22;16799;50.844;5.304;2023-04-06T13:03:09;8.70;99.90
29939;DHT22;16799;50.844;5.304;2023-04-06T13:05:34;8.70;99.90
29939;DHT22;16799;50.844;5.304;2023-04-06T13:08:00;8.80;99.90
29939;DHT22;16799;50.844;5.304;2023-04-06T13:10:26;8.90;99.90
29939;DHT22;16799;50.844;5.304;2023-04-06T13:12:52;8.80;99.90
29939;DHT22;16799;50.844;5.304;2023-04-06T13:15:18;8.90;99.90
29939;DHT22;16799;50.844;5.304;2023-04-06T13:17:43;8.90;99.90
29939;DHT22;16799;50.844;5.304;2023-04-06T13:20:09;9.10;99.90
29939;DHT22;16799;50.844;5.304;2023-04-06T13:22:35;9.10;99.90
29939;DHT22;16799;50.844;5.304;2023-04-06T13:25:01;9.20;99.90
29939;DHT22;16799;50.844;5.304;2023-04-06T13:27:27;9.30;99.90
29939;DHT22;16799;50.844;5.304;2023-04-06T13:29:54;9.30;99.90
29939;DHT22;16799;50.844;5.304;2023-04-06T13:32:20;9.40;99.90
29939;DHT22;16799;50.844;5.304;2023-04-06T13:34:46;9.30;99.90
29939;DHT22;16799;50.844;5.304;2023-04-06T13:37:14;9.30;99.90
29939;DHT22;16799;50.844;5.304;2023-04-06T13:39:40;9.30;99.90
29939;DHT22;16799;50.844;5.304;2023-04-06T13:42:05;9.30;99.90
29939;DHT22;16799;50.844;5.304;2023-04-06T13:44:32;9.50;99.90
29939;DHT22;16799;50.844;5.304;2023-04-06T13:46:58;9.50;99.90
29939;DHT22;16799;50.844;5.304;2023-04-06T13:49:24;9.50;99.90
29939;DHT22;16799;50.844;5.304;2023-04-06T13:51:49;9.30;99.90
29939;DHT22;16799;50.844;5.304;2023-04-06T13:54:15;9.20;99.90
29939;DHT22;16799;50.844;5.304;2023-04-06T13:56:41;9.30;99.90
29939;DHT22;16799;50.844;5.304;2023-04-06T13:59:06;9.30;99.90
29939;DHT22;16799;50.844;5.304;2023-04-06T14:01:32;9.20;99.90
29939;DHT22;16799;50.844;5.304;2023-04-06T14:03:58;9.10;99.90
29939;DHT22;16799;50.844;5.304;2023-04-06T14:06:23;9.10;99.90
29939;DHT22;16799;50.844;5.304;2023-04-06T14:08:49;9.10;99.90
29939;DHT22;16799;50.844;5.304;2023-04-06T14:11:15;9.20;99.90
29939;DHT22;16799;50.844;5.304;2023-04-06T14:13:41;9.30;99.90
29939;DHT22;16799;50.844;5.304;2023-04-06T14:16:07;9.40;99.90
29939;DHT22;16799;50.844;5.304;2023-04-06T14:18:33;9.40;99.90
29939;DHT22;16799;50.844;5.304;2023-04-06T14:21:00;9.40;99.90
29939;DHT22;16799;50.844;5.304;2023-04-06T14:23:27;9.30;99.90
29939;DHT22;16799;50.844;5.304;2023-04-06T14:26:03;9.30;99.90
29939;DHT22;16799;50.844;5.304;2023-04-06T14:28:30;9.20;99.90
29939;DHT22;16799;50.844;5.304;2023-04-06T14:30:56;9.10;99.90
29939;DHT22;16799;50.844;5.304;2023-04-06T14:33:22;9.00;99.90
29939;DHT22;16799;50.844;5.304;2023-04-06T14:35:47;9.00;99.90
29939;DHT22;16799;50.844;5.304;2023-04-06T14:38:13;9.10;99.90
29939;DHT22;16799;50.844;5.304;2023-04-06T14:40:39;9.20;99.90
29939;DHT22;16799;50.844;5.304;2023-04-06T14:43:04;9.20;99.90
29939;DHT22;16799;50.844;5.304;2023-04-06T14:45:33;9.20;99.90
29939;DHT22;16799;50.844;5.304;2023-04-06T14:47:59;9.10;99.90
29939;DHT22;16799;50.844;5.304;2023-04-06T14:50:24;9.10;99.90
29939;DHT22;16799;50.844;5.304;2023-04-06T14:52:50;9.00;99.90
29939;DHT22;16799;50.844;5.304;2023-04-06T14:55:16;8.90;99.90
29939;DHT22;16799;50.844;5.304;2023-04-06T14:57:41;8.90;99.90
29939;DHT22;16799;50.844;5.304;2023-04-06T15:00:07;8.90;99.90
29939;DHT22;16799;50.844;5.304;2023-04-06T15:02:34;9.00;99.90
29939;DHT22;16799;50.844;5.304;2023-04-06T15:05:00;9.00;99.90
29939;DHT22;16799;50.844;5.304;2023-04-06T15:07:26;9.00;99.90
29939;DHT22;16799;50.844;5.304;2023-04-06T15:09:51;9.10;99.90
29939;DHT22;16799;50.844;5.304;2023-04-06T15:12:17;9.10;99.90
29939;DHT22;16799;50.844;5.304;2023-04-06T15:14:43;9.20;99.90
29939;DHT22;16799;50.844;5.304;2023-04-06T15:17:08;9.20;99.90
29939;DHT22;16799;50.844;5.304;2023-04-06T15:19:34;9.10;99.90
29939;DHT22;16799;50.844;5.304;2023-04-06T15:21:59;9.00;99.90
29939;DHT22;16799;50.844;5.304;2023-04-06T15:24:25;9.00;99.90
29939;DHT22;16799;50.844;5.304;2023-04-06T15:26:51;8.90;99.90
29939;DHT22;16799;50.844;5.304;2023-04-06T15:29:16;8.90;99.90
29939;DHT22;16799;50.844;5.304;2023-04-06T15:31:42;8.80;99.90
29939;DHT22;16799;50.844;5.304;2023-04-06T15:34:08;8.90;99.90
29939;DHT22;16799;50.844;5.304;2023-04-06T15:36:34;8.90;99.90
29939;DHT22;16799;50.844;5.304;2023-04-06T15:39:00;8.80;99.90
29939;DHT22;16799;50.844;5.304;2023-04-06T15:41:26;8.80;99.90
29939;DHT22;16799;50.844;5.304;2023-04-06T15:43:53;8.70;99.90
29939;DHT22;16799;50.844;5.304;2023-04-06T15:46:20;8.70;99.90
29939;DHT22;16799;50.844;5.304;2023-04-06T15:48:46;8.70;99.90
29939;DHT22;16799;50.844;5.304;2023-04-06T15:51:12;8.80;99.90